Time;durP1;ratioP1;P1;durP2;ratioP2;P2;SDS_P1;SDS_P2;PMS_P1;PMS_P2;Temp;Humidity;BMP_temperature;BMP_pressure;BME280_temperature;BME280_humidity;BME280_pressure;Samples;Min_cycle;Max_cycle;Signal;HPM_P1;HPM_P2
2024/02/08 00:01:39;;;;;;;8.70;7.50;;;;;;;1.24;100.00;97866.17;109388;1253;67137;-75
2024/02/08 00:04:06;;;;;;;11.10;8.30;;;;;;;1.24;100.00;97867.04;109411;1252;59068;-75
2024/02/08 00:06:32;;;;;;;10.90;7.90;;;;;;;1.25;100.00;97870.66;109133;1252;65256;-75
2024/02/08 00:09:00;;;;;;;11.90;8.10;;;;;;;1.25;100.00;97866.28;109357;1252;59070;-74
2024/02/08 00:11:28;;;;;;;12.00;8.20;;;;;;;1.26;100.00;97864.67;109364;1252;59239;-75
2024/02/08 00:13:54;;;;;;;11.70;8.80;;;;;;;1.26;100.00;97861.35;109061;1257;66585;-74
2024/02/08 00:16:21;;;;;;;11.20;8.80;;;;;;;1.26;100.00;97858.38;109395;1252;68818;-75
2024/02/08 00:18:48;;;;;;;10.60;8.40;;;;;;;1.26;100.00;97854.00;109379;1252;64996;-74
2024/02/08 00:21:15;;;;;;;10.30;8.50;;;;;;;1.26;100.00;97856.64;109361;1252;59333;-75
2024/02/08 00:23:41;;;;;;;12.60;8.80;;;;;;;1.26;100.00;97855.42;109379;1252;59363;-74
2024/02/08 00:26:08;;;;;;;11.00;9.10;;;;;;;1.25;100.00;97862.95;109381;1252;65928;-74
2024/02/08 00:28:35;;;;;;;12.20;9.70;;;;;;;1.26;100.00;97863.80;109376;1252;60048;-75
2024/02/08 00:31:04;;;;;;;14.50;11.00;;;;;;;1.27;100.00;97866.70;109371;1252;64201;-73
2024/02/08 00:33:33;;;;;;;13.80;10.30;;;;;;;1.29;100.00;97861.91;109338;1252;59355;-75
2024/02/08 00:36:03;;;;;;;16.30;11.00;;;;;;;1.30;100.00;97862.37;109119;1252;59475;-74
2024/02/08 00:38:29;;;;;;;11.80;10.00;;;;;;;1.33;100.00;97862.96;109346;1253;65880;-74
2024/02/08 00:40:56;;;;;;;14.30;9.90;;;;;;;1.34;100.00;97861.32;109355;1252;61064;-75
2024/02/08 00:43:23;;;;;;;11.60;9.90;;;;;;;1.35;100.00;97863.05;109379;1252;64321;-75
2024/02/08 00:45:49;;;;;;;12.50;9.80;;;;;;;1.35;100.00;97865.48;109379;1252;58962;-74
2024/02/08 00:48:16;;;;;;;11.20;9.50;;;;;;;1.36;100.00;97867.72;109387;1252;58996;-75
2024/02/08 00:50:43;;;;;;;12.70;10.10;;;;;;;1.37;100.00;97867.15;109354;1252;66030;-75
2024/02/08 00:53:09;;;;;;;10.40;8.80;;;;;;;1.39;100.00;97867.76;109367;1252;60749;-75
2024/02/08 00:55:36;;;;;;;12.90;8.80;;;;;;;1.39;100.00;97868.98;109355;1252;64050;-74
2024/02/08 00:58:03;;;;;;;9.70;8.70;;;;;;;1.39;100.00;97868.10;109341;1252;59118;-74
2024/02/08 01:00:37;;;;;;;11.50;8.30;;;;;;;1.38;100.00;97866.22;109418;1252;59588;-75
2024/02/08 01:03:04;;;;;;;8.20;6.80;;;;;;;1.36;100.00;97869.64;109343;1252;64794;-76
2024/02/08 01:05:32;;;;;;;10.00;7.80;;;;;;;1.33;100.00;97869.27;109113;1252;61607;-74
2024/02/08 01:08:00;;;;;;;8.00;7.20;;;;;;;1.31;100.00;97864.26;109362;1252;64784;-74
2024/02/08 01:10:27;;;;;;;8.20;7.10;;;;;;;1.32;100.00;97867.19;109259;1252;58993;-75
2024/02/08 01:12:54;;;;;;;9.00;7.60;;;;;;;1.31;100.00;97865.28;109382;1252;59099;-74
2024/02/08 01:15:21;;;;;;;10.20;9.10;;;;;;;1.31;100.00;97865.84;109371;1252;67219;-74
2024/02/08 01:17:51;;;;;;;8.90;7.60;;;;;;;1.30;100.00;97866.25;109378;1252;61119;-75
2024/02/08 01:20:27;;;;;;;;;;;;;;;1.29;100.00;97860.32;109388;1252;65190;-75
2024/02/08 01:22:54;;;;;;;10.40;7.60;;;;;;;1.29;100.00;97861.55;109357;1252;59104;-74
2024/02/08 01:25:21;;;;;;;8.40;6.40;;;;;;;1.29;100.00;97858.23;109408;1252;58934;-74
2024/02/08 01:27:47;;;;;;;9.30;7.30;;;;;;;1.28;100.00;97858.61;109377;1252;67127;-75
2024/02/08 01:30:14;;;;;;;10.00;7.90;;;;;;;1.27;100.00;97853.59;109137;1252;61300;-74
2024/02/08 01:32:40;;;;;;;10.60;9.20;;;;;;;1.27;100.00;97849.96;109357;1252;65220;-75
2024/02/08 01:35:10;;;;;;;11.90;8.40;;;;;;;1.27;100.00;97847.34;109369;1252;58957;-74
2024/02/08 01:37:38;;;;;;;13.50;8.70;;;;;;;1.26;100.00;97847.02;109388;1252;59000;-74
2024/02/08 01:40:07;;;;;;;12.20;9.70;;;;;;;1.26;100.00;97842.11;109363;1252;64832;-74
2024/02/08 01:42:37;;;;;;;13.80;8.40;;;;;;;1.28;100.00;97843.23;109120;1252;59429;-74
2024/02/08 01:45:29;;;;;;;11.30;8.40;;;;;;;1.27;100.00;97842.91;109376;1252;65116;-73
2024/02/08 01:48:00;;;;;;;8.80;7.60;;;;;;;1.26;100.00;97840.53;109364;1252;58947;-74
2024/02/08 01:50:30;;;;;;;12.10;8.70;;;;;;;1.27;100.00;97844.68;109378;1252;59063;-74
2024/02/08 01:52:59;;;;;;;9.30;7.80;;;;;;;1.28;100.00;97845.48;109280;1252;66998;-74
2024/02/08 01:55:32;;;;;;;12.40;8.60;;;;;;;1.28;100.00;97841.80;109369;1256;61071;-75
2024/02/08 01:58:04;;;;;;;13.80;9.60;;;;;;;1.29;100.00;97839.87;109384;1252;63987;-75
2024/02/08 02:00:48;;;;;;;13.60;9.40;;;;;;;1.29;100.00;97839.66;109304;1252;59409;-75
2024/02/08 02:03:16;;;;;;;11.50;9.10;;;;;;;1.30;100.00;97845.09;109361;1252;59021;-73
2024/02/08 02:05:46;;;;;;;13.10;9.80;;;;;;;1.29;100.00;97844.77;109355;1252;67192;-74
2024/02/08 02:08:18;;;;;;;11.60;9.30;;;;;;;1.29;100.00;97843.02;109362;1252;59990;-75
2024/02/08 02:10:52;;;;;;;11.10;9.20;;;;;;;1.29;100.00;97846.52;109227;1252;64087;-74
2024/02/08 02:13:19;;;;;;;11.20;8.70;;;;;;;1.29;100.00;97847.37;109389;1252;59375;-75
2024/02/08 02:15:46;;;;;;;10.40;8.50;;;;;;;1.30;100.00;97843.52;109360;1252;58810;-75
2024/02/08 02:18:16;;;;;;;14.40;9.10;;;;;;;1.29;100.00;97842.12;109359;1252;65961;-76
2024/02/08 02:20:43;;;;;;;13.00;9.40;;;;;;;1.31;100.00;97843.63;109381;1253;60218;-76
2024/02/08 02:23:09;;;;;;;9.70;7.70;;;;;;;1.30;100.00;97845.74;109343;1252;64191;-74
2024/02/08 02:25:39;;;;;;;11.70;8.40;;;;;;;1.30;100.00;97847.52;109368;1252;58980;-74
2024/02/08 02:28:09;;;;;;;10.60;8.50;;;;;;;1.30;100.00;97847.34;109398;1252;59394;-73
2024/02/08 02:30:37;;;;;;;10.20;7.60;;;;;;;1.29;100.00;97851.92;109384;1252;65953;-74
2024/02/08 02:33:05;;;;;;;9.50;7.10;;;;;;;1.28;100.00;97845.87;109098;1252;61171;-75
2024/02/08 02:35:32;;;;;;;9.00;7.70;;;;;;;1.27;100.00;97844.36;109350;1252;64023;-74
2024/02/08 02:38:02;;;;;;;9.30;8.40;;;;;;;1.26;100.00;97845.94;109075;1252;59408;-74
2024/02/08 02:40:33;;;;;;;10.60;8.60;;;;;;;1.27;100.00;97842.08;109372;1252;59289;-73
2024/02/08 02:43:09;;;;;;;9.80;8.00;;;;;;;1.25;100.00;97837.06;109380;1252;66063;-74
2024/02/08 02:45:36;;;;;;;13.80;9.40;;;;;;;1.24;100.00;97837.13;109463;1252;61132;-75
2024/02/08 02:48:03;;;;;;;11.80;9.70;;;;;;;1.25;100.00;97830.29;109050;1252;62959;-75
2024/02/08 02:50:30;;;;;;;12.90;10.50;;;;;;;1.24;100.00;97831.36;109374;1252;59306;-74
2024/02/08 02:52:59;;;;;;;11.40;9.30;;;;;;;1.24;100.00;97828.73;109395;1252;59065;-74
2024/02/08 02:55:27;;;;;;;12.10;10.30;;;;;;;1.24;100.00;97827.00;109338;1252;67228;-75
2024/02/08 02:57:57;;;;;;;15.10;10.80;;;;;;;1.23;100.00;97825.64;106249;1252;1006622;-74
2024/02/08 03:00:37;;;;;;;16.40;9.80;;;;;;;1.24;100.00;97832.22;109389;1252;65012;-74
2024/02/08 03:03:08;;;;;;;13.90;10.20;;;;;;;1.24;100.00;97830.51;109409;1252;59022;-74
2024/02/08 03:05:35;;;;;;;13.80;10.30;;;;;;;1.23;100.00;97830.90;107028;1252;1002530;-74
2024/02/08 03:08:05;;;;;;;14.30;9.90;;;;;;;1.22;100.00;97827.45;109384;1252;59154;-74
2024/02/08 03:10:33;;;;;;;12.80;10.20;;;;;;;1.21;100.00;97820.33;109388;1252;61226;-74
2024/02/08 03:13:00;;;;;;;12.70;10.10;;;;;;;1.21;100.00;97824.34;109162;1252;65008;-74
2024/02/08 03:15:27;;;;;;;14.00;10.80;;;;;;;1.20;100.00;97820.02;109406;1252;59046;-75
2024/02/08 03:17:53;;;;;;;14.20;11.00;;;;;;;1.19;100.00;97823.56;109404;1252;58934;-75
2024/02/08 03:20:29;;;;;;;13.90;10.60;;;;;;;1.18;100.00;97823.29;109295;1252;67197;-75
2024/02/08 03:22:56;;;;;;;15.80;11.20;;;;;;;1.18;100.00;97827.29;109414;1252;61197;-74
2024/02/08 03:25:24;;;;;;;12.30;10.90;;;;;;;1.19;100.00;97830.19;109389;1252;65125;-74
2024/02/08 03:27:51;;;;;;;12.90;10.80;;;;;;;1.19;100.00;97830.90;109387;1252;59021;-74
2024/02/08 03:30:19;;;;;;;14.30;11.50;;;;;;;1.18;100.00;97834.77;109294;1252;59017;-75
2024/02/08 03:32:50;;;;;;;15.30;13.30;;;;;;;1.18;100.00;97833.77;109408;1252;65901;-75
2024/02/08 03:35:25;;;;;;;17.10;13.00;;;;;;;1.18;100.00;97833.23;109398;1252;60167;-75
2024/02/08 03:37:54;;;;;;;15.40;12.60;;;;;;;1.18;100.00;97839.35;109380;1252;65000;-74
2024/02/08 03:40:22;;;;;;;16.20;13.20;;;;;;;1.19;100.00;97835.46;109450;1252;59117;-73
2024/02/08 03:42:49;;;;;;;14.10;12.20;;;;;;;1.20;100.00;97836.83;109415;1252;59012;-73
2024/02/08 03:45:23;;;;;;;18.90;13.40;;;;;;;1.20;100.00;97838.19;109397;1252;67487;-74
2024/02/08 03:47:50;;;;;;;15.30;12.30;;;;;;;1.21;100.00;97836.22;109432;1252;61192;-75
2024/02/08 03:50:17;;;;;;;20.20;12.30;;;;;;;1.22;100.00;97835.82;109445;1252;65082;-76
2024/02/08 03:52:45;;;;;;;15.40;12.00;;;;;;;1.22;100.00;97838.81;109438;1252;59862;-74
2024/02/08 03:55:16;;;;;;;15.40;11.80;;;;;;;1.20;100.00;97840.64;109437;1252;60082;-75
2024/02/08 03:57:48;;;;;;;15.90;12.60;;;;;;;1.17;100.00;97840.08;109171;1252;67086;-74
2024/02/08 04:00:27;;;;;;;14.30;12.40;;;;;;;1.13;100.00;97842.20;109443;1252;60747;-75
2024/02/08 04:02:58;;;;;;;16.20;12.10;;;;;;;1.11;100.00;97841.95;109391;1252;64115;-74
2024/02/08 04:05:56;;;;;;;11.90;10.30;;;;;;;1.11;100.00;97842.48;109404;1252;59320;-75
2024/02/08 04:08:53;;;;;;;10.80;9.80;;;;;;;1.09;100.00;97838.71;109409;1252;58949;-75
2024/02/08 04:55:12;;;;;;;16.40;11.30;;;;;;;1.14;100.00;97833.27;109435;1252;59129;-74
2024/02/08 04:57:39;;;;;;;12.60;10.80;;;;;;;1.14;100.00;97833.94;109399;1252;65054;-74
2024/02/08 05:00:12;;;;;;;13.90;10.00;;;;;;;1.15;100.00;97834.92;109384;1252;58956;-74
2024/02/08 05:02:40;;;;;;;13.00;9.90;;;;;;;1.16;100.00;97832.98;109411;1252;59058;-74
2024/02/08 05:05:07;;;;;;;12.40;9.90;;;;;;;1.16;100.00;97832.98;109472;1252;67262;-75
2024/02/08 05:07:33;;;;;;;13.00;10.50;;;;;;;1.16;100.00;97836.48;109402;1252;60147;-74
2024/02/08 05:10:00;;;;;;;13.30;10.00;;;;;;;1.17;100.00;97833.48;109135;1252;65030;-75
2024/02/08 05:12:29;;;;;;;14.70;9.50;;;;;;;1.17;100.00;97829.05;109431;1252;59042;-75
2024/02/08 05:14:56;;;;;;;12.80;9.80;;;;;;;1.19;100.00;97822.70;109438;1252;58981;-74
2024/02/08 05:17:22;;;;;;;10.10;8.40;;;;;;;1.18;100.00;97815.37;109448;1252;65978;-76
2024/02/08 05:19:49;;;;;;;15.70;9.10;;;;;;;1.18;100.00;97816.42;109458;1252;61193;-74
2024/02/08 05:22:15;;;;;;;13.40;8.60;;;;;;;1.19;100.00;97818.30;109432;1252;64140;-74
2024/02/08 05:24:42;;;;;;;18.80;12.30;;;;;;;1.18;100.00;97815.36;109405;1252;59435;-75
2024/02/08 05:27:11;;;;;;;15.30;13.40;;;;;;;1.18;100.00;97818.70;109415;1252;59000;-74
2024/02/08 05:29:41;;;;;;;20.00;16.40;;;;;;;1.17;100.00;97823.29;109447;1252;67039;-75
2024/02/08 05:32:09;;;;;;;21.70;17.40;;;;;;;1.17;100.00;97828.75;109432;1252;60799;-74
2024/02/08 05:34:36;;;;;;;28.70;19.40;;;;;;;1.17;100.00;97834.30;109412;1257;64824;-74
2024/02/08 05:37:03;;;;;;;28.40;21.50;;;;;;;1.19;100.00;97836.34;109402;1257;59085;-74
2024/02/08 05:39:30;;;;;;;30.10;21.50;;;;;;;1.20;100.00;97839.10;109116;1252;59251;-75
2024/02/08 05:41:56;;;;;;;30.80;22.30;;;;;;;1.21;100.00;97833.09;109448;1252;66166;-75
2024/02/08 05:44:29;;;;;;;25.60;19.80;;;;;;;1.22;100.00;97829.19;109470;1252;59402;-75
2024/02/08 05:46:56;;;;;;;26.70;19.50;;;;;;;1.23;100.00;97827.23;109455;1252;65314;-75
2024/02/08 05:49:25;;;;;;;27.00;20.90;;;;;;;1.24;100.00;97823.12;109455;1252;59303;-73
2024/02/08 05:51:52;;;;;;;19.20;14.40;;;;;;;1.26;100.00;97816.20;109443;1252;59119;-74
2024/02/08 05:54:31;;;;;;;18.40;13.40;;;;;;;1.26;100.00;97810.78;109447;1252;65732;-75
2024/02/08 05:57:02;;;;;;;16.50;13.50;;;;;;;1.25;100.00;97812.91;108731;1252;1003194;-75
2024/02/08 05:59:31;;;;;;;16.80;12.30;;;;;;;1.25;100.00;97816.45;109395;1252;64765;-75
2024/02/08 06:02:02;;;;;;;15.80;12.40;;;;;;;1.23;100.00;97819.16;109416;1252;58992;-75
2024/02/08 06:04:35;;;;;;;16.30;12.60;;;;;;;1.21;100.00;97816.30;109427;1252;58980;-75
2024/02/08 06:07:08;;;;;;;14.90;11.30;;;;;;;1.21;100.00;97816.46;109152;1252;67097;-75
2024/02/08 06:12:28;;;;;;;19.90;13.50;;;;;;;1.23;100.00;97825.64;109460;1253;65068;-74
2024/02/08 06:14:58;;;;;;;18.70;13.50;;;;;;;1.23;100.00;97825.97;109460;1252;59085;-74
2024/02/08 06:17:33;;;;;;;18.80;13.50;;;;;;;1.26;100.00;97829.17;109411;1252;59057;-75
2024/02/08 06:20:00;;;;;;;20.40;15.50;;;;;;;1.28;100.00;97829.75;109441;1252;67097;-75
2024/02/08 06:22:29;;;;;;;19.80;14.40;;;;;;;1.30;100.00;97830.16;109425;1252;60165;-73
2024/02/08 06:25:08;;;;;;;19.60;15.10;;;;;;;1.34;100.00;97837.54;109412;1252;65333;-74
2024/02/08 06:27:37;;;;;;;18.40;15.50;;;;;;;1.37;100.00;97842.10;109435;1252;59022;-75
2024/02/08 06:30:09;;;;;;;21.30;16.10;;;;;;;1.40;100.00;97849.50;109393;1253;58910;-75
2024/02/08 06:32:44;;;;;;;22.10;19.00;;;;;;;1.43;100.00;97852.69;109163;1252;67098;-79
2024/02/08 06:35:19;;;;;;;20.70;17.30;;;;;;;1.46;100.00;97854.44;109215;1252;61077;-79
2024/02/08 06:38:13;;;;;;;19.40;15.60;;;;;;;1.50;100.00;97853.02;109413;1252;64954;-79
2024/02/08 06:41:51;;;;;;;23.00;16.20;;;;;;;1.53;100.00;97844.50;109484;1252;59019;-79
2024/02/08 06:43:56;;;;;;;20.80;16.30;;;;;;;1.58;100.00;97841.79;109331;1255;59063;-80
2024/02/08 06:46:39;;;;;;;18.60;15.40;;;;;;;1.63;100.00;97841.73;109450;1252;65923;-78
2024/02/08 07:39:35;;;;;;;23.70;18.90;;;;;;;2.30;100.00;97848.48;107226;1252;1002943;-79
2024/02/08 07:42:12;;;;;;;26.70;20.20;;;;;;;2.34;100.00;97839.36;109420;1252;67065;-79
2024/02/08 07:44:39;;;;;;;25.60;21.90;;;;;;;2.38;100.00;97830.88;109466;1252;60871;-80
2024/02/08 07:47:06;;;;;;;21.60;19.30;;;;;;;2.41;100.00;97821.98;109479;1252;65065;-78
2024/02/08 07:49:44;;;;;;;21.20;17.40;;;;;;;2.42;100.00;97813.33;109470;1252;59052;-80
2024/02/08 07:52:19;;;;;;;20.60;15.20;;;;;;;2.45;100.00;97811.05;109481;1252;59041;-80
2024/02/08 07:57:34;;;;;;;15.60;11.70;;;;;;;2.54;100.00;97811.81;109247;1252;61135;-80
2024/02/08 08:00:00;;;;;;;16.90;12.60;;;;;;;2.55;100.00;97817.04;109475;1252;65185;-79
2024/02/08 08:02:29;;;;;;;18.30;12.10;;;;;;;2.54;100.00;97816.17;109175;1252;59048;-79
2024/02/08 08:04:56;;;;;;;16.20;12.70;;;;;;;2.51;100.00;97820.05;109466;1252;59285;-80
2024/02/08 08:07:23;;;;;;;15.40;12.40;;;;;;;2.51;100.00;97823.03;109468;1253;64872;-80
2024/02/08 08:09:59;;;;;;;16.20;12.60;;;;;;;2.50;100.00;97825.73;109490;1252;60065;-80
2024/02/08 08:12:29;;;;;;;17.70;15.00;;;;;;;2.43;100.00;97828.36;109445;1252;63650;-80
2024/02/08 08:20:03;;;;;;;16.60;13.40;;;;;;;2.45;100.00;97818.10;109111;1256;66971;-80
2024/02/08 08:28:09;;;;;;;19.20;13.20;;;;;;;2.99;100.00;97786.89;109114;1255;59011;-79
2024/02/08 08:30:38;;;;;;;15.70;13.60;;;;;;;3.12;100.00;97779.48;109057;1255;58976;-79
2024/02/08 08:40:48;;;;;;;14.60;12.50;;;;;;;3.42;100.00;97780.43;108959;1255;58992;-79
2024/02/08 08:43:25;;;;;;;16.90;13.70;;;;;;;3.41;100.00;97781.73;109145;1255;58953;-79
2024/02/08 08:46:10;;;;;;;16.60;11.70;;;;;;;3.37;100.00;97779.30;109098;1255;66154;-79
2024/02/08 08:48:37;;;;;;;18.00;13.50;;;;;;;3.39;100.00;97780.95;108988;1255;60131;-79
2024/02/08 08:51:12;;;;;;;16.80;12.40;;;;;;;3.36;100.00;97781.31;109290;1252;64341;-80
2024/02/08 08:53:56;;;;;;;16.30;12.40;;;;;;;3.28;100.00;97785.33;109269;1252;58979;-78
2024/02/08 08:56:27;;;;;;;14.90;12.30;;;;;;;3.21;100.00;97781.15;109214;1252;59060;-79
2024/02/08 08:58:54;;;;;;;15.10;11.90;;;;;;;3.16;100.00;97780.89;109488;1253;65956;-80
2024/02/08 09:01:23;;;;;;;16.80;12.40;;;;;;;3.11;100.00;97775.71;109467;1252;61200;-79
2024/02/08 09:04:10;;;;;;;13.20;11.20;;;;;;;3.05;100.00;97781.47;109404;1252;63980;-79
2024/02/08 09:06:38;;;;;;;17.40;14.00;;;;;;;3.04;100.00;97784.34;109430;1252;58988;-80
2024/02/08 09:11:57;;;;;;;17.10;12.10;;;;;;;3.10;100.00;97793.48;109442;1252;66071;-79
2024/02/08 09:14:30;;;;;;;15.10;11.70;;;;;;;3.12;100.00;97794.45;109491;1252;60813;-79
2024/02/08 09:16:58;;;;;;;19.00;12.60;;;;;;;3.14;100.00;97793.95;109038;1252;62534;-79
2024/02/08 09:19:27;;;;;;;15.80;12.90;;;;;;;3.16;100.00;97792.83;109417;1254;59040;-79
2024/02/08 09:21:59;;;;;;;15.80;11.80;;;;;;;3.18;100.00;97783.06;109445;1252;59026;-80
2024/02/08 09:24:26;;;;;;;13.90;10.90;;;;;;;3.21;100.00;97782.52;109520;1252;66963;-80
2024/02/08 09:27:15;;;;;;;12.50;10.20;;;;;;;3.24;100.00;97784.29;109421;1252;61111;-78
2024/02/08 09:29:43;;;;;;;13.00;9.00;;;;;;;3.26;100.00;97784.88;109437;1252;64159;-79
2024/02/08 09:34:58;;;;;;;12.80;8.30;;;;;;;3.23;100.00;97778.75;109439;1252;59299;-79
2024/02/08 09:37:25;;;;;;;12.80;7.90;;;;;;;3.22;100.00;97771.73;107889;1252;1003189;-80
2024/02/08 09:42:29;;;;;;;9.20;7.60;;;;;;;3.27;100.00;97771.48;109431;1252;64250;-80
2024/02/08 09:45:13;;;;;;;9.80;7.80;;;;;;;3.42;100.00;97767.46;109401;1252;59878;-79
2024/02/08 09:47:47;;;;;;;13.10;9.40;;;;;;;3.57;100.00;97761.67;109463;1252;59030;-78
2024/02/08 09:50:21;;;;;;;14.50;9.50;;;;;;;3.61;100.00;97756.89;109476;1252;66075;-80
2024/02/08 09:52:56;;;;;;;13.50;8.40;;;;;;;3.63;100.00;97751.65;109450;1253;60032;-80
2024/02/08 09:55:32;;;;;;;11.90;7.60;;;;;;;3.66;100.00;97747.98;109414;1253;64109;-79
2024/02/08 09:58:04;;;;;;;10.70;7.60;;;;;;;3.69;100.00;97748.86;109401;1256;59070;-80
2024/02/08 10:00:54;;;;;;;12.70;8.70;;;;;;;3.72;100.00;97749.03;109443;1252;58920;-79
2024/02/08 10:03:33;;;;;;;12.90;8.90;;;;;;;3.72;100.00;97744.96;109497;1252;67258;-79
2024/02/08 10:06:13;;;;;;;11.80;8.80;;;;;;;3.67;100.00;97745.77;109452;1252;59871;-79
2024/02/08 10:08:54;;;;;;;12.70;9.90;;;;;;;3.55;100.00;97746.14;109157;1252;64264;-80
2024/02/08 10:11:24;;;;;;;14.20;11.80;;;;;;;3.52;100.00;97742.44;109417;1256;59037;-80
2024/02/08 10:14:01;;;;;;;13.70;11.10;;;;;;;3.57;100.00;97738.30;109437;1252;59007;-78
2024/02/08 10:16:29;;;;;;;12.90;10.90;;;;;;;3.60;100.00;97736.24;109429;1253;67243;-78
2024/02/08 10:19:03;;;;;;;13.30;11.10;;;;;;;3.54;100.00;97728.83;109460;1254;60718;-80
2024/02/08 10:21:35;;;;;;;14.90;12.10;;;;;;;3.50;100.00;97721.34;109123;1256;63974;-79
2024/02/08 10:24:25;;;;;;;16.30;12.90;;;;;;;3.49;100.00;97719.78;109086;1255;59142;-81
2024/02/08 10:26:54;;;;;;;18.70;14.20;;;;;;;3.53;100.00;97721.14;109106;1256;59827;-80
2024/02/08 10:29:25;;;;;;;16.10;12.70;;;;;;;3.60;100.00;97715.81;109089;1260;67309;-80
2024/02/08 10:31:54;;;;;;;19.90;14.90;;;;;;;3.71;100.00;97720.98;109105;1256;60050;-79
2024/02/08 10:34:33;;;;;;;20.90;15.70;;;;;;;3.84;100.00;97717.23;109120;1255;65188;-80
2024/02/08 10:37:00;;;;;;;18.70;13.70;;;;;;;3.92;100.00;97714.98;109103;1258;58997;-79
2024/02/08 10:39:26;;;;;;;17.60;13.90;;;;;;;3.96;100.00;97707.69;109075;1258;59080;-78
2024/02/08 10:44:27;;;;;;;;;;;;;;;4.14;100.00;97686.92;109113;1256;60846;-80
2024/02/08 10:47:06;;;;;;;18.00;13.10;;;;;;;4.15;100.00;97687.71;109146;1256;64163;-74
2024/02/08 10:49:42;;;;;;;17.30;13.10;;;;;;;4.10;100.00;97692.42;108900;1256;59012;-81
2024/02/08 10:52:12;;;;;;;17.70;14.10;;;;;;;4.08;100.00;97684.31;109204;1254;59052;-78
2024/02/08 10:54:42;;;;;;;17.90;13.60;;;;;;;4.09;100.00;97678.23;109436;1255;66087;-77
2024/02/08 10:57:39;;;;;;;21.80;15.60;;;;;;;4.12;100.00;97671.54;109426;1252;61140;-76
2024/02/08 10:59:59;;;;;;;22.30;16.20;;;;;;;4.13;100.00;97667.97;109393;1253;64044;-77
2024/02/08 11:02:32;;;;;;;18.70;15.40;;;;;;;4.17;100.00;97667.19;109403;1256;58934;-76
2024/02/08 11:05:21;;;;;;;21.50;17.80;;;;;;;4.15;100.00;97668.40;109432;1253;59090;-77
2024/02/08 11:07:48;;;;;;;24.20;19.10;;;;;;;4.21;100.00;97659.04;109438;1253;66946;-76
2024/02/08 11:10:23;;;;;;;23.30;19.10;;;;;;;4.32;100.00;97659.27;109483;1253;60279;-77
2024/02/08 11:12:55;;;;;;;23.20;18.90;;;;;;;4.40;100.00;97658.93;109431;1253;65197;-78
2024/02/08 11:15:30;;;;;;;25.10;19.30;;;;;;;4.43;100.00;97656.96;109389;1256;59127;-77
2024/02/08 11:18:02;;;;;;;22.00;19.40;;;;;;;4.43;100.00;97653.98;109428;1257;59026;-77
2024/02/08 11:20:45;;;;;;;24.90;19.90;;;;;;;4.45;100.00;97651.20;109068;1253;66151;-77
2024/02/08 11:23:23;;;;;;;22.90;18.60;;;;;;;4.52;100.00;97656.39;109424;1253;60835;-77
2024/02/08 11:25:52;;;;;;;20.80;17.20;;;;;;;4.50;100.00;97661.64;109414;1254;65074;-76
2024/02/08 11:28:27;;;;;;;20.30;17.10;;;;;;;4.43;100.00;97658.36;109439;1252;58998;-76
2024/02/08 11:30:54;;;;;;;21.70;16.50;;;;;;;4.34;100.00;97656.12;109439;1253;59077;-76
2024/02/08 11:33:42;;;;;;;25.30;17.20;;;;;;;4.31;100.00;97654.52;109459;1252;67165;-75
2024/02/08 11:36:21;;;;;;;20.10;16.30;;;;;;;4.32;100.00;97653.27;109457;1254;61114;-76
2024/02/08 11:38:57;;;;;;;17.30;14.90;;;;;;;4.27;100.00;97648.84;109321;1253;72593;-75
2024/02/08 11:41:27;;;;;;;18.60;16.20;;;;;;;4.25;100.00;97647.23;109405;1253;59035;-75
2024/02/08 11:44:11;;;;;;;20.70;15.70;;;;;;;4.24;100.00;97643.55;109057;1261;59435;-77
2024/02/08 11:46:45;;;;;;;20.40;14.70;;;;;;;4.21;100.00;97641.80;109441;1254;67135;-77
2024/02/08 11:49:15;;;;;;;17.30;15.30;;;;;;;4.24;100.00;97633.73;109384;1253;61118;-76
2024/02/08 11:51:42;;;;;;;19.60;15.50;;;;;;;4.29;100.00;97627.28;109397;1253;65217;-76
2024/02/08 11:54:09;;;;;;;19.40;15.20;;;;;;;4.30;100.00;97620.20;109435;1254;59265;-76
2024/02/08 11:56:36;;;;;;;17.40;15.40;;;;;;;4.29;100.00;97615.31;109444;1254;59129;-76
2024/02/08 11:59:07;;;;;;;18.20;14.50;;;;;;;4.30;100.00;97613.83;109442;1254;66039;-76
2024/02/08 12:01:36;;;;;;;17.50;13.70;;;;;;;4.24;100.00;97614.77;109452;1252;67744;-76
2024/02/08 12:04:03;;;;;;;15.20;12.50;;;;;;;4.19;100.00;97607.67;109413;1253;65033;-77
2024/02/08 12:06:33;;;;;;;16.60;13.30;;;;;;;4.22;100.00;97602.56;109149;1254;59009;-77
2024/02/08 12:09:04;;;;;;;15.30;12.60;;;;;;;4.24;100.00;97606.11;109456;1254;59024;-78
2024/02/08 12:11:33;;;;;;;17.00;13.10;;;;;;;4.24;100.00;97596.45;109318;1254;67183;-76
2024/02/08 12:14:04;;;;;;;16.00;13.90;;;;;;;4.21;100.00;97592.77;109302;1254;61221;-78
2024/02/08 12:16:35;;;;;;;16.40;13.50;;;;;;;4.17;100.00;97591.44;109412;1253;72930;-77
2024/02/08 12:19:05;;;;;;;17.90;13.20;;;;;;;4.11;100.00;97587.27;109405;1253;59103;-75
2024/02/08 12:21:34;;;;;;;18.30;12.90;;;;;;;4.03;100.00;97589.02;109067;1253;59129;-75
2024/02/08 12:24:04;;;;;;;20.60;16.50;;;;;;;3.99;100.00;97589.82;109099;1254;66598;-77
2024/02/08 12:26:34;;;;;;;23.00;16.50;;;;;;;4.00;100.00;97589.17;109154;1253;59348;-77
2024/02/08 12:29:03;;;;;;;20.60;15.10;;;;;;;4.02;100.00;97585.58;109399;1254;65210;-76
2024/02/08 12:31:34;;;;;;;21.00;15.60;;;;;;;4.02;100.00;97581.17;109369;1254;58951;-77
2024/02/08 12:34:03;;;;;;;22.40;18.80;;;;;;;4.02;100.00;97579.09;109441;1253;58988;-76
2024/02/08 12:36:33;;;;;;;18.00;13.80;;;;;;;4.02;100.00;97578.03;109371;1253;66061;-77
2024/02/08 12:39:01;;;;;;;16.70;13.50;;;;;;;4.00;100.00;97578.10;109336;1254;60132;-77
2024/02/08 12:41:29;;;;;;;16.70;12.80;;;;;;;4.00;100.00;97572.52;109280;1253;65122;-77
2024/02/08 12:43:57;;;;;;;23.40;21.00;;;;;;;3.98;100.00;97573.33;109376;1254;59064;-77
2024/02/08 12:46:24;;;;;;;29.00;26.10;;;;;;;3.97;100.00;97567.92;109283;1254;59035;-77
2024/02/08 12:48:50;;;;;;;23.40;19.40;;;;;;;4.00;100.00;97561.96;109420;1253;67463;-76
2024/02/08 12:51:23;;;;;;;26.00;23.40;;;;;;;4.02;100.00;97557.28;109414;1253;61163;-76
2024/02/08 12:53:56;;;;;;;22.40;18.40;;;;;;;4.07;100.00;97557.46;109429;1253;65189;-78
2024/02/08 12:56:23;;;;;;;20.20;16.80;;;;;;;4.11;100.00;97555.64;109392;1254;58937;-76
2024/02/08 12:59:00;;;;;;;22.70;16.20;;;;;;;4.09;100.00;97555.42;109364;1253;59054;-77
2024/02/08 13:01:46;;;;;;;22.90;16.90;;;;;;;4.00;100.00;97553.34;109441;1254;66742;-77
2024/02/08 13:04:17;;;;;;;24.90;20.30;;;;;;;3.89;100.00;97556.66;109412;1254;61036;-77
2024/02/08 13:06:44;;;;;;;22.90;16.10;;;;;;;3.83;100.00;97558.09;109363;1252;64202;-78
2024/02/08 13:09:25;;;;;;;20.30;15.60;;;;;;;3.79;100.00;97552.73;109290;1253;60054;-76
2024/02/08 13:12:14;;;;;;;20.70;15.50;;;;;;;3.76;100.00;97553.98;109112;1253;59064;-77
2024/02/08 13:14:48;;;;;;;19.80;15.90;;;;;;;3.69;100.00;97552.66;109424;1253;67240;-76
2024/02/08 13:17:21;;;;;;;19.70;16.00;;;;;;;3.63;100.00;97546.20;109328;1253;61082;-77
2024/02/08 13:19:54;;;;;;;16.50;14.10;;;;;;;3.59;100.00;97548.57;109400;1253;64886;-77
2024/02/08 13:22:30;;;;;;;19.10;15.60;;;;;;;3.53;100.00;97545.36;109227;1253;59021;-77
2024/02/08 13:24:58;;;;;;;19.90;15.20;;;;;;;3.50;100.00;97542.23;109384;1254;59021;-77
2024/02/08 13:27:29;;;;;;;17.30;14.20;;;;;;;3.45;100.00;97540.80;109418;1253;67016;-76
2024/02/08 13:29:59;;;;;;;24.30;15.70;;;;;;;3.38;100.00;97541.05;109421;1254;60838;-76
2024/02/08 13:32:29;;;;;;;20.60;14.80;;;;;;;3.30;100.00;97536.60;109382;1254;64915;-76
2024/02/08 13:34:58;;;;;;;24.20;18.80;;;;;;;3.23;100.00;97531.39;109327;1253;59017;-76
2024/02/08 13:37:28;;;;;;;21.50;17.20;;;;;;;3.20;100.00;97534.58;109419;1254;59070;-77
2024/02/08 13:39:59;;;;;;;19.60;16.00;;;;;;;3.17;100.00;97530.20;109154;1254;66633;-76